Time;durP1;ratioP1;P1;durP2;ratioP2;P2;SDS_P1;SDS_P2;PMS_P1;PMS_P2;Temp;Humidity;BMP_temperature;BMP_pressure;BME280_temperature;BME280_humidity;BME280_pressure;Samples;Min_cycle;Max_cycle;Signal;HPM_P1;HPM_P2
2021/01/31 00:00:43;;;;;;;34.25;18.40;;;;;;;-0.86;79.05;92307.50;5090608;28;20055;-59
2021/01/31 00:03:13;;;;;;;36.40;17.58;;;;;;;-0.72;79.78;92327.38;5090472;28;20080;-59
2021/01/31 00:05:39;;;;;;;28.45;16.60;;;;;;;-0.74;79.50;92308.94;5090546;28;20024;-59
2021/01/31 00:08:09;;;;;;;29.77;16.52;;;;;;;-0.53;79.11;92320.84;5090429;28;20393;-59
2021/01/31 00:10:35;;;;;;;36.58;19.38;;;;;;;-0.72;78.87;92320.00;5090808;28;20567;-59
2021/01/31 00:13:02;;;;;;;31.15;17.75;;;;;;;-0.48;78.43;92319.31;5090544;28;20032;-59
2021/01/31 00:15:30;;;;;;;36.70;18.55;;;;;;;-0.59;78.53;92319.41;5090606;28;20028;-58
2021/01/31 00:17:56;;;;;;;30.88;16.73;;;;;;;-0.47;78.30;92331.63;5090773;28;20454;-52
2021/01/31 00:20:25;;;;;;;31.45;16.33;;;;;;;-0.67;79.16;92321.91;5090603;28;20032;-54
2021/01/31 00:22:50;;;;;;;28.60;15.93;;;;;;;-0.59;79.08;92333.69;5090848;28;20052;-54
2021/01/31 00:25:16;;;;;;;25.42;14.10;;;;;;;-0.44;78.67;92327.91;5090731;28;20054;-51
2021/01/31 00:27:42;;;;;;;28.13;15.25;;;;;;;-0.40;78.83;92334.53;5090613;28;20079;-59
2021/01/31 00:30:16;;;;;;;25.90;14.13;;;;;;;-0.45;78.60;92329.88;5090361;28;20076;-58
2021/01/31 00:32:41;;;;;;;24.38;12.27;;;;;;;-0.79;79.07;92296.88;5092982;28;20020;-58
2021/01/31 00:35:07;;;;;;;30.80;16.10;;;;;;;-0.53;79.63;92323.53;5094152;28;20027;-58
2021/01/31 00:37:33;;;;;;;25.35;13.88;;;;;;;-0.40;79.19;92331.81;5094059;28;20059;-58
2021/01/31 00:39:58;;;;;;;31.33;15.38;;;;;;;-0.32;79.60;92326.56;5094202;28;20028;-58
2021/01/31 00:42:24;;;;;;;35.85;16.95;;;;;;;-0.44;79.13;92317.81;5093990;28;20404;-58
2021/01/31 00:44:51;;;;;;;28.58;14.85;;;;;;;-0.56;79.31;92323.81;5088811;28;20060;-58
2021/01/31 00:47:18;;;;;;;20.92;11.55;;;;;;;-0.41;79.83;92332.34;5073871;28;20052;-58
2021/01/31 00:49:45;;;;;;;25.98;13.48;;;;;;;-0.60;79.61;92332.22;5082687;28;20065;-59
2021/01/31 00:52:10;;;;;;;21.95;11.95;;;;;;;-0.51;79.76;92318.34;5075975;28;20035;-58
2021/01/31 00:54:36;;;;;;;25.60;13.93;;;;;;;-0.34;80.01;92326.34;5110250;28;20027;-58
2021/01/31 00:57:01;;;;;;;20.83;11.55;;;;;;;-0.30;79.33;92316.69;5114383;28;20038;-58
2021/01/31 00:59:27;;;;;;;19.35;11.32;;;;;;;-0.13;78.26;92328.13;5095795;28;20028;-58
2021/01/31 01:01:53;;;;;;;22.42;10.95;;;;;;;-0.25;78.14;92307.78;5093731;28;20427;-58
2021/01/31 01:04:18;;;;;;;24.10;12.75;;;;;;;-0.15;78.19;92313.59;5092984;28;20020;-58
2021/01/31 01:06:45;;;;;;;24.95;12.13;;;;;;;-0.02;78.21;92317.16;5093044;28;20020;-58
2021/01/31 01:09:12;;;;;;;17.30;11.40;;;;;;;-0.03;77.95;92332.00;5093507;28;20028;-57
2021/01/31 01:11:37;;;;;;;17.38;10.05;;;;;;;0.08;78.64;92333.84;5093681;28;20537;-58
2021/01/31 01:14:03;;;;;;;15.20;9.70;;;;;;;0.19;78.04;92331.03;5093414;28;20034;-58
2021/01/31 01:16:28;;;;;;;23.23;12.98;;;;;;;0.28;76.43;92327.97;5093402;28;20031;-58
2021/01/31 01:18:54;;;;;;;30.50;15.45;;;;;;;-0.01;76.65;92326.03;5093391;28;20028;-58
2021/01/31 01:21:19;;;;;;;54.45;24.73;;;;;;;0.09;77.29;92310.19;5093327;28;20027;-58
2021/01/31 01:23:45;;;;;;;29.08;14.68;;;;;;;-0.03;77.38;92315.72;5093507;28;20020;-58
2021/01/31 01:26:10;;;;;;;26.63;14.20;;;;;;;-0.49;78.79;92309.69;5093358;28;20024;-58
2021/01/31 01:28:35;;;;;;;53.70;22.17;;;;;;;-0.26;78.60;92306.28;5093302;28;20024;-58
2021/01/31 01:31:01;;;;;;;28.45;13.95;;;;;;;-0.33;78.95;92312.28;5093148;28;20051;-57
2021/01/31 01:33:26;;;;;;;34.05;15.60;;;;;;;-0.35;79.25;92314.78;5093101;28;20385;-49
2021/01/31 01:35:52;;;;;;;21.55;11.68;;;;;;;-0.23;79.53;92318.09;5093168;28;20397;-50
2021/01/31 01:38:17;;;;;;;22.25;11.07;;;;;;;-0.29;79.25;92322.84;5092856;28;20044;-49
2021/01/31 01:40:43;;;;;;;28.60;14.32;;;;;;;-0.19;79.50;92318.56;5093017;28;20062;-51
2021/01/31 01:43:18;;;;;;;26.33;12.73;;;;;;;-0.28;79.39;92318.91;5091793;28;20043;-47
2021/01/31 01:45:44;;;;;;;19.88;11.70;;;;;;;-0.36;80.12;92297.03;5092933;28;20016;-49
2021/01/31 01:48:17;;;;;;;23.73;12.30;;;;;;;-0.01;79.17;92315.94;5092897;28;20103;-50
2021/01/31 01:50:49;;;;;;;28.42;13.52;;;;;;;-0.09;79.75;92309.59;5074655;28;20024;-47
2021/01/31 01:53:18;;;;;;;33.50;14.63;;;;;;;-0.09;78.84;92292.59;5092943;28;20023;-48
2021/01/31 01:55:53;;;;;;;26.85;16.38;;;;;;;-0.12;79.20;92286.19;5092621;28;20031;-53
2021/01/31 01:58:19;;;;;;;42.53;22.13;;;;;;;0.21;78.89;92308.81;5074613;28;20035;-54
2021/01/31 02:00:46;;;;;;;50.60;23.98;;;;;;;-0.02;78.37;92306.31;5092488;28;20023;-51
2021/01/31 02:03:20;;;;;;;41.83;20.85;;;;;;;-0.16;79.18;92307.44;5074395;28;20020;-59
2021/01/31 02:05:54;;;;;;;34.95;18.08;;;;;;;-0.12;79.38;92297.06;5092539;28;20104;-57
2021/01/31 02:08:20;;;;;;;38.65;17.70;;;;;;;-0.08;79.09;92311.06;5074227;28;20044;-58
2021/01/31 02:10:45;;;;;;;22.55;12.80;;;;;;;-0.38;80.32;92313.06;5074443;28;20071;-58
2021/01/31 02:13:11;;;;;;;19.92;12.73;;;;;;;-0.24;80.52;92317.38;5092590;28;20404;-53
2021/01/31 02:15:36;;;;;;;29.85;14.90;;;;;;;-0.04;80.59;92327.06;5092082;28;20403;-53
2021/01/31 02:18:17;;;;;;;22.48;11.48;;;;;;;0.15;79.54;92311.59;5092249;28;20036;-51
2021/01/31 02:21:04;;;;;;;30.45;16.05;;;;;;;0.26;79.02;92310.72;5054408;28;20111;-53
2021/01/31 02:23:54;;;;;;;29.48;16.60;;;;;;;0.31;78.51;92323.50;5071999;28;20028;-56
2021/01/31 02:26:46;;;;;;;85.78;30.20;;;;;;;0.29;79.67;92328.69;5071923;28;20028;-55
2021/01/31 02:29:29;;;;;;;61.40;26.73;;;;;;;0.02;79.01;92289.03;5040559;28;20068;-51
2021/01/31 02:31:56;;;;;;;78.25;31.00;;;;;;;0.27;78.88;92318.34;5071730;28;20020;-55
2021/01/31 02:34:21;;;;;;;55.38;26.15;;;;;;;0.00;79.39;92306.53;5053780;28;20085;-54
2021/01/31 02:36:50;;;;;;;46.55;22.05;;;;;;;0.13;79.36;92297.06;5071673;28;20131;-55
2021/01/31 02:39:23;;;;;;;30.45;16.92;;;;;;;0.10;80.05;92306.94;5071679;28;20032;-51
2021/01/31 02:42:26;;;;;;;38.78;19.25;;;;;;;0.16;79.74;92288.63;5071586;28;20059;-59
2021/01/31 02:45:11;;;;;;;40.90;20.55;;;;;;;-0.02;80.18;92308.28;5071510;28;20031;-53
2021/01/31 02:47:42;;;;;;;38.25;19.23;;;;;;;0.04;80.02;92306.28;5053759;28;20032;-53
2021/01/31 02:50:13;;;;;;;38.38;18.45;;;;;;;0.12;79.45;92315.31;5070335;28;20020;-53
2021/01/31 02:52:45;;;;;;;43.50;20.23;;;;;;;0.24;78.64;92303.09;5070190;28;20024;-52
2021/01/31 02:55:16;;;;;;;36.22;20.45;;;;;;;0.06;79.08;92303.03;5069996;28;20016;-52
2021/01/31 02:57:49;;;;;;;39.83;20.52;;;;;;;0.17;80.18;92303.66;5053575;28;20049;-48
2021/01/31 03:00:25;;;;;;;37.53;20.15;;;;;;;0.21;79.87;92311.53;5070223;28;20154;-54
2021/01/31 03:03:04;;;;;;;41.60;20.75;;;;;;;0.22;79.45;92302.16;5053292;28;20052;-49
2021/01/31 03:05:33;;;;;;;49.70;23.35;;;;;;;0.11;79.75;92302.25;5053518;28;20413;-54
2021/01/31 03:08:06;;;;;;;47.55;23.00;;;;;;;0.19;79.45;92298.47;5070069;28;20024;-55
2021/01/31 03:10:39;;;;;;;39.58;21.23;;;;;;;-0.02;79.71;92294.72;5071269;28;20127;-55
2021/01/31 03:13:09;;;;;;;40.97;21.65;;;;;;;0.11;79.56;92296.84;5070012;28;20097;-54
2021/01/31 03:15:38;;;;;;;42.92;22.65;;;;;;;0.11;79.65;92302.97;5069898;28;20081;-50
2021/01/31 03:18:06;;;;;;;40.92;23.10;;;;;;;-0.20;79.77;92290.72;5071303;28;20024;-50
2021/01/31 03:20:37;;;;;;;34.50;18.48;;;;;;;-0.12;80.65;92290.88;5091106;28;20032;-50
2021/01/31 03:23:17;;;;;;;42.47;20.73;;;;;;;-0.15;80.18;92284.50;5073609;28;20035;-51
2021/01/31 03:25:46;;;;;;;39.38;21.05;;;;;;;-0.09;80.23;92290.59;5091086;28;20030;-58
2021/01/31 03:28:12;;;;;;;41.53;23.20;;;;;;;-0.47;80.96;92270.00;5073167;28;20039;-59
2021/01/31 03:30:37;;;;;;;46.67;23.80;;;;;;;-0.28;81.11;92295.22;5091350;28;20024;-58
2021/01/31 03:33:10;;;;;;;36.35;19.63;;;;;;;-0.48;81.85;92278.66;5091309;28;20020;-58
2021/01/31 03:35:39;;;;;;;40.50;19.17;;;;;;;-0.38;82.14;92293.34;5091247;28;20056;-57
2021/01/31 03:38:29;;;;;;;38.10;19.27;;;;;;;-0.36;81.77;92294.31;5090852;28;20050;-59
2021/01/31 03:40:57;;;;;;;38.13;19.70;;;;;;;-0.11;81.71;92292.38;5073135;28;20111;-59
2021/01/31 03:43:23;;;;;;;35.10;19.65;;;;;;;-0.12;79.93;92259.06;5073160;28;20020;-59
2021/01/31 03:46:19;;;;;;;32.47;18.60;;;;;;;0.08;80.35;92284.28;5091081;28;20050;-59
2021/01/31 03:48:59;;;;;;;36.20;17.55;;;;;;;0.08;79.95;92268.00;5091190;28;20024;-59
2021/01/31 03:51:26;;;;;;;33.50;16.10;;;;;;;0.13;80.65;92262.50;5091041;28;20024;-59
2021/01/31 03:53:51;;;;;;;35.40;18.42;;;;;;;0.07;80.27;92250.22;5091001;28;20024;-59
2021/01/31 03:56:21;;;;;;;32.60;18.67;;;;;;;-0.05;80.11;92228.66;5073080;28;20026;-59
2021/01/31 03:58:48;;;;;;;35.47;19.65;;;;;;;0.24;80.13;92245.38;5072978;28;20055;-59
2021/01/31 04:01:14;;;;;;;33.33;17.98;;;;;;;0.42;79.35;92248.09;5072977;28;20587;-59
2021/01/31 04:03:48;;;;;;;36.05;17.88;;;;;;;0.47;79.27;92255.44;5090935;28;20040;-59
2021/01/31 04:06:22;;;;;;;36.25;20.35;;;;;;;0.28;79.87;92251.94;5072997;28;20028;-59
2021/01/31 04:08:50;;;;;;;34.80;19.55;;;;;;;0.22;80.04;92240.44;5076680;28;20032;-59
2021/01/31 04:11:42;;;;;;;41.78;19.58;;;;;;;0.31;79.36;92231.19;5076839;28;20389;-60
2021/01/31 04:14:34;;;;;;;74.78;19.90;;;;;;;0.41;79.48;92233.03;5094564;28;20028;-59
2021/01/31 04:16:59;;;;;;;34.30;18.35;;;;;;;0.48;79.84;92237.16;5094767;28;20077;-59
2021/01/31 04:19:27;;;;;;;29.85;17.35;;;;;;;0.56;79.19;92238.75;5094561;28;20016;-59
2021/01/31 04:21:53;;;;;;;38.63;20.13;;;;;;;0.70;78.38;92242.28;5094436;28;20028;-58
2021/01/31 04:24:18;;;;;;;37.80;19.48;;;;;;;0.73;77.24;92239.31;5094419;28;20020;-59
2021/01/31 04:26:44;;;;;;;37.80;19.33;;;;;;;0.84;77.02;92245.81;5094382;28;20105;-58
2021/01/31 04:29:09;;;;;;;38.20;19.67;;;;;;;0.75;77.19;92239.50;5094339;28;20031;-56
2021/01/31 04:31:35;;;;;;;40.25;21.00;;;;;;;0.68;77.09;92244.78;5076427;28;20047;-56
2021/01/31 04:34:00;;;;;;;51.45;24.90;;;;;;;0.45;77.65;92241.66;5094159;28;20024;-55
2021/01/31 04:36:27;;;;;;;52.38;25.80;;;;;;;0.49;77.73;92252.22;5093026;28;20031;-54
2021/01/31 04:38:53;;;;;;;33.83;19.67;;;;;;;0.44;78.05;92255.72;5093727;28;20028;-53
2021/01/31 04:41:19;;;;;;;25.60;13.15;;;;;;;0.24;79.30;92245.38;5094228;28;20024;-56
2021/01/31 04:43:48;;;;;;;27.75;16.27;;;;;;;-0.06;79.56;92237.31;5075991;28;20024;-57
2021/01/31 04:46:22;;;;;;;33.80;18.15;;;;;;;-0.29;80.88;92233.34;5076036;28;20020;-55
2021/01/31 04:48:53;;;;;;;29.80;15.82;;;;;;;-0.23;81.65;92236.75;5094095;28;20063;-56
2021/01/31 04:51:19;;;;;;;32.47;15.15;;;;;;;-0.12;81.00;92233.91;5093906;28;20020;-55
2021/01/31 04:54:08;;;;;;;35.92;15.15;;;;;;;-0.13;80.56;92229.75;5093918;28;20035;-57
2021/01/31 04:56:41;;;;;;;42.33;20.65;;;;;;;-0.13;80.72;92224.31;5093823;28;20027;-56
2021/01/31 04:59:14;;;;;;;67.80;32.65;;;;;;;-0.30;80.97;92216.34;5075827;28;20031;-58
2021/01/31 05:01:40;;;;;;;58.05;28.55;;;;;;;-0.27;80.59;92209.91;5093685;28;20103;-58
2021/01/31 05:04:11;;;;;;;54.55;26.17;;;;;;;-0.11;80.94;92208.97;5093803;28;20059;-59
2021/01/31 05:06:49;;;;;;;60.20;29.73;;;;;;;-0.25;80.01;92195.84;5075666;28;20020;-58
2021/01/31 05:09:19;;;;;;;54.38;26.52;;;;;;;-0.69;81.19;92175.34;5075587;28;20020;-57
2021/01/31 05:12:21;;;;;;;59.72;26.00;;;;;;;-0.50;80.96;92203.25;5093560;28;20550;-58
2021/01/31 05:15:01;;;;;;;56.70;26.77;;;;;;;-0.45;81.30;92213.28;5075474;28;20031;-57
2021/01/31 05:17:27;;;;;;;69.10;31.77;;;;;;;-0.27;81.26;92217.31;5093643;28;20028;-58
2021/01/31 05:19:53;;;;;;;43.15;24.00;;;;;;;-0.27;80.61;92209.91;5093487;28;20408;-58
2021/01/31 05:22:21;;;;;;;45.15;22.55;;;;;;;-0.19;79.82;92196.50;5096245;28;20518;-58
2021/01/31 05:24:47;;;;;;;43.95;23.02;;;;;;;-0.22;80.41;92203.69;5103161;28;20119;-58
2021/01/31 05:27:16;;;;;;;42.72;23.00;;;;;;;-0.14;80.59;92212.75;5102264;28;20153;-58
2021/01/31 05:29:42;;;;;;;55.63;26.15;;;;;;;-0.16;80.29;92220.66;5099682;28;20084;-58
2021/01/31 05:32:13;;;;;;;56.85;29.30;;;;;;;-0.26;80.73;92226.94;5103033;28;20008;-58
2021/01/31 05:34:40;;;;;;;69.93;34.45;;;;;;;-0.42;80.19;92236.69;5104258;28;20012;-58
2021/01/31 05:37:09;;;;;;;50.47;25.25;;;;;;;-0.68;80.89;92230.28;5102916;28;20542;-58
2021/01/31 05:39:36;;;;;;;48.40;24.40;;;;;;;-0.59;80.95;92233.41;5103838;28;20105;-58
2021/01/31 05:42:07;;;;;;;38.13;22.50;;;;;;;-0.89;81.22;92235.38;5099168;28;20034;-58
2021/01/31 05:44:32;;;;;;;46.05;22.58;;;;;;;-0.80;82.13;92251.31;5084027;28;20522;-58
2021/01/31 05:47:01;;;;;;;43.33;20.73;;;;;;;-0.77;82.18;92242.19;5103608;28;20047;-58
2021/01/31 05:49:32;;;;;;;40.30;20.55;;;;;;;-0.65;81.63;92248.25;5100623;28;20019;-51
2021/01/31 05:51:58;;;;;;;40.53;21.42;;;;;;;-0.53;81.38;92250.34;5101499;28;20102;-61
2021/01/31 05:54:33;;;;;;;36.78;19.38;;;;;;;-0.39;81.02;92243.78;5085158;28;20098;-60
2021/01/31 05:56:58;;;;;;;32.05;19.45;;;;;;;-0.24;80.32;92244.13;5103572;28;20016;-59
2021/01/31 05:59:39;;;;;;;53.35;23.17;;;;;;;-0.51;79.56;92215.34;5067187;28;20020;-59
2021/01/31 06:02:05;;;;;;;80.97;33.05;;;;;;;-0.34;79.76;92240.31;5099297;28;20023;-61
2021/01/31 06:04:31;;;;;;;71.65;33.05;;;;;;;-0.21;80.03;92240.41;5101973;28;20022;-61
2021/01/31 06:07:07;;;;;;;67.95;32.42;;;;;;;-0.08;79.01;92243.25;5103363;28;20016;-58
2021/01/31 06:09:38;;;;;;;55.70;31.27;;;;;;;-0.01;78.85;92242.69;5075274;28;20032;-55
2021/01/31 06:12:27;;;;;;;78.22;33.70;;;;;;;0.03;78.28;92238.94;5097205;28;20096;-53
2021/01/31 06:15:17;;;;;;;111.00;44.45;;;;;;;0.04;78.87;92249.28;5081577;28;20036;-52
2021/01/31 06:17:43;;;;;;;92.85;35.10;;;;;;;0.19;78.10;92255.03;5092329;28;20558;-53
2021/01/31 06:20:14;;;;;;;81.57;36.15;;;;;;;0.17;79.08;92256.78;5070720;28;20016;-53
2021/01/31 06:22:42;;;;;;;84.88;36.10;;;;;;;-0.01;78.75;92261.66;5070807;28;20100;-53
2021/01/31 06:25:13;;;;;;;75.13;31.73;;;;;;;0.14;79.32;92260.53;5085618;28;20063;-54
2021/01/31 06:27:38;;;;;;;71.95;31.10;;;;;;;0.35;78.74;92267.66;5074057;28;20035;-51
2021/01/31 06:30:14;;;;;;;64.10;28.73;;;;;;;0.22;78.47;92273.00;5091621;28;20020;-54
2021/01/31 06:32:40;;;;;;;59.25;31.67;;;;;;;0.21;79.40;92266.13;5074160;28;20020;-49
2021/01/31 06:35:09;;;;;;;55.28;25.80;;;;;;;0.34;78.69;92276.34;5091937;28;20362;-50
2021/01/31 06:37:56;;;;;;;68.32;29.33;;;;;;;0.42;79.04;92283.38;5091879;28;20424;-58
2021/01/31 06:40:36;;;;;;;61.05;29.33;;;;;;;0.42;79.07;92269.06;5091956;28;20119;-58
2021/01/31 06:43:08;;;;;;;62.88;28.58;;;;;;;0.46;79.96;92272.97;5092073;28;20107;-59
2021/01/31 06:45:45;;;;;;;68.30;29.95;;;;;;;0.65;79.89;92278.44;5091914;28;20381;-58
2021/01/31 06:48:29;;;;;;;58.22;28.05;;;;;;;0.71;79.64;92276.38;5091959;28;20031;-58
2021/01/31 06:51:20;;;;;;;48.90;25.15;;;;;;;0.64;79.66;92266.09;5091813;28;20024;-58
2021/01/31 06:53:58;;;;;;;118.57;45.95;;;;;;;0.69;79.58;92285.00;5073761;28;20032;-58
2021/01/31 06:56:39;;;;;;;113.40;51.15;;;;;;;0.87;79.55;92293.69;5091742;28;20067;-58
2021/01/31 06:59:10;;;;;;;109.25;51.92;;;;;;;0.88;78.42;92300.59;5073691;28;20483;-58
2021/01/31 07:01:51;;;;;;;91.70;43.30;;;;;;;0.60;79.56;92292.81;5091937;28;20053;-58
2021/01/31 07:04:16;;;;;;;84.47;40.30;;;;;;;0.81;79.77;92296.47;5091516;28;20027;-58
2021/01/31 07:07:26;;;;;;;70.22;35.88;;;;;;;0.83;80.51;92293.97;5091466;28;20419;-58
2021/01/31 07:10:22;;;;;;;56.40;26.20;;;;;;;1.33;80.23;92293.28;5091528;28;20107;-58
2021/01/31 07:13:02;;;;;;;35.88;20.40;;;;;;;2.50;78.59;92287.28;5088556;28;20112;-59
2021/01/31 07:15:36;;;;;;;34.75;19.40;;;;;;;3.65;74.11;92288.03;5088582;28;20429;-57
2021/01/31 07:18:06;;;;;;;51.53;27.13;;;;;;;4.49;69.03;92279.94;5073490;28;20046;-58
2021/01/31 07:20:36;;;;;;;41.85;25.23;;;;;;;5.06;66.49;92282.59;5071380;28;20059;-58
2021/01/31 07:23:12;;;;;;;39.30;22.92;;;;;;;6.11;63.59;92288.31;5071293;28;20056;-58
2021/01/31 07:25:40;;;;;;;20.65;13.13;;;;;;;6.77;60.16;92301.78;5061766;28;20027;-58
2021/01/31 07:28:07;;;;;;;18.42;10.98;;;;;;;6.37;59.06;92280.97;5072992;28;20052;-58
2021/01/31 07:30:37;;;;;;;30.65;19.17;;;;;;;6.38;61.01;92276.97;5072695;28;20115;-61
2021/01/31 07:33:21;;;;;;;51.35;32.05;;;;;;;7.40;58.87;92266.06;5072752;28;20500;-50
2021/01/31 07:35:58;;;;;;;36.38;21.60;;;;;;;8.27;56.18;92266.59;5089924;28;20024;-54
2021/01/31 07:38:54;;;;;;;28.98;15.90;;;;;;;7.73;56.29;92264.06;5088990;28;20040;-59
2021/01/31 07:41:20;;;;;;;33.22;17.35;;;;;;;7.88;57.31;92261.22;5082372;28;20526;-60
2021/01/31 07:43:47;;;;;;;19.90;10.25;;;;;;;7.81;55.58;92248.97;5093392;28;20020;-59
2021/01/31 07:46:16;;;;;;;13.05;8.50;;;;;;;7.84;56.81;92247.13;5073043;28;20024;-61
2021/01/31 07:48:45;;;;;;;9.40;5.53;;;;;;;8.53;54.66;92257.06;5095165;28;20020;-63
2021/01/31 07:51:13;;;;;;;8.23;4.82;;;;;;;9.00;53.06;92261.53;5094756;28;20480;-48
2021/01/31 07:53:40;;;;;;;9.85;6.55;;;;;;;8.55;55.01;92262.00;5093325;28;20024;-46
2021/01/31 07:56:51;;;;;;;12.25;6.72;;;;;;;8.82;55.91;92260.06;5094592;28;20039;-48
2021/01/31 07:59:19;;;;;;;12.75;4.68;;;;;;;10.03;51.20;92245.50;5090514;28;20401;-55
2021/01/31 08:01:47;;;;;;;11.60;6.43;;;;;;;10.47;49.96;92254.41;5094731;28;20032;-46
2021/01/31 08:04:16;;;;;;;12.02;5.97;;;;;;;11.30;48.47;92252.88;5076750;28;20032;-48
2021/01/31 08:06:51;;;;;;;5.32;2.80;;;;;;;11.70;44.80;92257.09;5094365;28;20039;-50
2021/01/31 08:09:29;;;;;;;4.38;2.90;;;;;;;12.14;45.25;92252.63;5076227;28;20036;-47
2021/01/31 08:12:08;;;;;;;6.32;4.45;;;;;;;11.99;45.43;92258.50;5094415;28;20028;-47
2021/01/31 08:14:52;;;;;;;;;;;;;;;12.15;44.71;92256.09;5094547;28;20055;-49
2021/01/31 08:17:54;;;;;;;4.72;2.60;;;;;;;12.25;44.46;92253.31;5094051;28;19965;-46
2021/01/31 08:20:31;;;;;;;5.93;4.93;;;;;;;12.40;44.81;92264.03;5093971;28;20020;-48
2021/01/31 08:23:22;;;;;;;7.88;4.50;;;;;;;12.56;44.67;92260.31;5094226;28;20028;-45
2021/01/31 08:26:00;;;;;;;7.30;4.65;;;;;;;12.41;43.36;92257.91;5093878;28;20625;-46
2021/01/31 08:28:30;;;;;;;8.02;4.78;;;;;;;12.14;42.32;92257.44;5092915;28;20032;-51
2021/01/31 08:31:02;;;;;;;8.70;4.72;;;;;;;11.89;41.86;92266.09;5092800;28;20047;-48
2021/01/31 08:33:38;;;;;;;4.82;2.58;;;;;;;10.83;42.82;92277.75;5093867;28;20040;-48
2021/01/31 08:36:08;;;;;;;4.28;2.65;;;;;;;9.96;45.23;92262.91;5092749;28;20059;-45
2021/01/31 08:38:39;;;;;;;6.28;3.53;;;;;;;10.04;45.38;92282.81;5093652;28;20505;-46
2021/01/31 08:41:05;;;;;;;2.90;2.47;;;;;;;9.73;44.08;92290.75;5092381;28;20028;-47
2021/01/31 08:43:44;;;;;;;3.65;1.80;;;;;;;9.59;44.07;92299.97;5092517;28;20032;-45
2021/01/31 08:46:20;;;;;;;2.55;1.75;;;;;;;9.42;44.62;92305.50;5093604;28;20081;-50
2021/01/31 08:49:00;;;;;;;5.90;3.03;;;;;;;9.21;47.77;92305.91;5093620;28;20474;-46
2021/01/31 08:51:27;;;;;;;3.97;2.20;;;;;;;9.30;46.55;92315.53;5093535;28;20077;-45
2021/01/31 08:54:20;;;;;;;1.85;1.45;;;;;;;9.46;45.95;92311.31;5092935;28;20475;-48
2021/01/31 08:56:57;;;;;;;2.55;1.60;;;;;;;9.44;47.29;92319.44;5093615;28;20526;-47
2021/01/31 08:59:35;;;;;;;2.85;1.75;;;;;;;9.89;46.15;92322.34;5075452;28;20488;-48
2021/01/31 09:02:12;;;;;;;4.15;1.45;;;;;;;10.38;44.52;92307.53;5075196;28;20031;-47
2021/01/31 09:04:38;;;;;;;2.42;1.40;;;;;;;11.17;42.05;92300.31;5075269;28;20048;-53
2021/01/31 09:07:04;;;;;;;5.18;3.70;;;;;;;12.07;42.31;92305.34;5075141;28;20435;-51
2021/01/31 09:09:36;;;;;;;5.45;3.90;;;;;;;13.26;41.05;92288.50;5092817;28;20031;-48
2021/01/31 09:12:06;;;;;;;17.02;6.95;;;;;;;13.44;38.15;92290.44;5083288;28;20028;-47
2021/01/31 09:14:40;;;;;;;13.73;6.55;;;;;;;14.30;37.93;92309.09;5102839;28;20024;-48
2021/01/31 09:17:10;;;;;;;6.53;3.58;;;;;;;14.26;33.96;92283.09;5092996;28;20496;-46
2021/01/31 09:19:36;;;;;;;2.58;1.50;;;;;;;13.41;34.89;92299.19;5093040;28;20032;-47
2021/01/31 09:22:28;;;;;;;1.98;1.58;;;;;;;12.30;38.08;92299.34;5093160;28;20389;-46
2021/01/31 09:24:59;;;;;;;2.58;1.80;;;;;;;11.92;38.79;92295.34;5089042;28;20028;-48
2021/01/31 09:27:25;;;;;;;2.17;1.55;;;;;;;11.90;38.66;92297.25;5075054;28;20028;-46
2021/01/31 09:29:56;;;;;;;2.58;1.60;;;;;;;12.16;38.23;92296.31;5074789;28;20089;-51
2021/01/31 09:32:25;;;;;;;2.85;1.58;;;;;;;12.45;37.54;92307.28;5098722;28;20051;-48
2021/01/31 09:34:52;;;;;;;3.45;1.95;;;;;;;12.66;37.15;92288.69;5099543;28;20416;-52
2021/01/31 09:37:23;;;;;;;2.22;1.40;;;;;;;12.42;35.65;92281.50;5074288;28;20048;-47
2021/01/31 09:39:49;;;;;;;3.05;2.28;;;;;;;12.19;37.46;92286.84;5092611;28;20066;-53
2021/01/31 09:42:15;;;;;;;3.45;1.80;;;;;;;12.02;37.01;92292.53;5074515;28;20027;-47
2021/01/31 09:44:47;;;;;;;3.22;2.28;;;;;;;11.70;39.07;92290.28;5073282;28;20028;-47
2021/01/31 09:47:13;;;;;;;8.55;4.85;;;;;;;11.43;42.71;92293.19;5093112;28;20028;-49
2021/01/31 09:49:39;;;;;;;21.52;11.73;;;;;;;11.02;43.10;92263.94;5088689;28;20100;-47
2021/01/31 09:52:09;;;;;;;10.00;5.40;;;;;;;11.06;42.84;92289.09;5094831;28;20034;-46
2021/01/31 09:54:36;;;;;;;8.80;5.03;;;;;;;10.94;43.45;92277.16;5112714;28;20034;-47
2021/01/31 09:57:14;;;;;;;4.05;2.75;;;;;;;10.98;43.36;92275.41;5112523;28;20081;-50
2021/01/31 09:59:43;;;;;;;2.88;1.73;;;;;;;10.62;43.52;92295.56;5074328;28;20020;-47
2021/01/31 10:02:15;;;;;;;2.60;1.80;;;;;;;10.68;44.60;92294.56;5075383;28;20089;-46
2021/01/31 10:04:42;;;;;;;1.98;1.52;;;;;;;10.58;41.99;92281.47;5091670;28;20032;-46
2021/01/31 10:07:13;;;;;;;1.80;1.45;;;;;;;10.38;42.74;92276.44;5074687;28;20024;-45
2021/01/31 10:09:43;;;;;;;1.73;1.30;;;;;;;10.17;43.37;92265.91;5074548;28;20027;-46
2021/01/31 10:12:34;;;;;;;4.95;2.10;;;;;;;10.07;43.49;92256.81;5071308;28;20031;-47
2021/01/31 10:15:09;;;;;;;9.38;2.10;;;;;;;10.22;45.39;92251.13;5085596;28;20023;-45
2021/01/31 10:17:37;;;;;;;1.80;1.40;;;;;;;10.08;44.25;92230.00;5112767;28;20019;-45
2021/01/31 10:20:35;;;;;;;4.75;3.67;;;;;;;10.27;45.13;92250.13;5095752;28;20031;-45
2021/01/31 10:23:19;;;;;;;11.70;6.95;;;;;;;10.32;45.79;92251.16;5092288;28;20048;-45
2021/01/31 10:25:59;;;;;;;6.10;3.38;;;;;;;10.46;45.00;92261.22;5074153;28;20024;-45
2021/01/31 10:28:36;;;;;;;2.85;1.90;;;;;;;10.36;43.27;92265.25;5092221;28;20032;-46
2021/01/31 10:31:02;;;;;;;2.63;1.85;;;;;;;10.01;42.91;92250.84;5092335;28;20089;-47
2021/01/31 10:33:48;;;;;;;2.55;1.60;;;;;;;9.87;42.06;92222.94;5092121;28;20101;-46
2021/01/31 10:36:40;;;;;;;2.00;1.60;;;;;;;9.99;43.87;92244.47;5081813;28;20178;-47
2021/01/31 10:39:08;;;;;;;6.55;3.40;;;;;;;9.99;45.20;92244.47;5102693;28;20039;-46
2021/01/31 10:41:34;;;;;;;5.70;2.60;;;;;;;10.12;45.16;92238.59;5101045;28;20035;-47
2021/01/31 10:44:03;;;;;;;10.32;8.15;;;;;;;10.04;46.16;92219.38;5096331;28;20076;-46
2021/01/31 10:46:31;;;;;;;4.78;3.13;;;;;;;10.09;45.30;92201.81;5094778;28;20443;-47
2021/01/31 10:48:57;;;;;;;7.35;4.53;;;;;;;10.40;45.06;92224.91;5100490;28;20111;-47
2021/01/31 10:51:23;;;;;;;8.88;6.35;;;;;;;10.33;46.31;92220.22;5097871;28;20539;-46
2021/01/31 10:53:49;;;;;;;6.22;4.32;;;;;;;10.52;46.15;92228.56;5090586;28;20046;-46
2021/01/31 10:56:14;;;;;;;5.20;3.80;;;;;;;10.30;44.94;92218.63;5091647;28;20481;-46
2021/01/31 10:58:40;;;;;;;5.60;3.55;;;;;;;10.48;45.91;92206.19;5091723;28;20452;-47
2021/01/31 11:01:06;;;;;;;10.35;4.60;;;;;;;10.93;46.29;92220.47;5091638;28;20027;-46
2021/01/31 11:03:31;;;;;;;8.10;3.58;;;;;;;10.90;44.18;92194.75;5075567;28;20025;-46
2021/01/31 11:05:57;;;;;;;2.63;1.88;;;;;;;11.29;41.77;92214.78;5070741;28;20017;-47
2021/01/31 11:08:24;;;;;;;13.27;3.60;;;;;;;11.27;43.99;92204.34;5089868;28;20085;-49
2021/01/31 11:10:49;;;;;;;3.92;2.40;;;;;;;11.41;42.30;92212.91;5088324;28;20036;-46
2021/01/31 11:13:15;;;;;;;4.40;3.13;;;;;;;11.16;41.26;92218.75;5091611;28;20035;-47
2021/01/31 11:15:41;;;;;;;5.75;3.47;;;;;;;11.21;44.10;92233.56;5090794;28;20028;-47
2021/01/31 11:18:06;;;;;;;6.25;3.60;;;;;;;11.51;45.60;92244.00;5090879;28;20762;-48
2021/01/31 11:20:32;;;;;;;4.45;3.47;;;;;;;11.77;45.75;92250.69;5090718;28;20032;-44
2021/01/31 11:22:57;;;;;;;5.07;3.50;;;;;;;11.81;43.31;92248.94;5094686;28;20024;-46
2021/01/31 11:25:23;;;;;;;4.85;2.83;;;;;;;11.62;43.79;92251.72;5089851;28;20089;-50
2021/01/31 11:27:48;;;;;;;2.22;1.70;;;;;;;11.68;42.94;92243.13;5089561;28;20028;-48
2021/01/31 11:30:14;;;;;;;2.95;2.53;;;;;;;12.04;43.76;92240.84;5088942;28;20054;-46
2021/01/31 11:32:39;;;;;;;4.03;2.03;;;;;;;11.96;42.32;92229.25;5088885;28;20039;-47
2021/01/31 11:35:06;;;;;;;3.60;2.17;;;;;;;11.92;40.87;92223.44;5088432;28;20027;-48
2021/01/31 11:37:32;;;;;;;2.83;1.95;;;;;;;11.79;40.27;92220.41;5040172;28;20071;-46
2021/01/31 11:39:57;;;;;;;2.80;2.47;;;;;;;11.63;41.12;92214.44;5082468;28;20125;-46
2021/01/31 11:42:24;;;;;;;1.67;1.35;;;;;;;11.61;39.13;92228.13;5091988;28;20024;-45
2021/01/31 11:44:50;;;;;;;1.60;1.50;;;;;;;11.67;40.42;92216.81;5090204;28;20424;-44